This is the latest recevied weather packets stored in our database for station/object WA7CUG. If no packets are shown the sender has not sent any weather packets the latest 10 day(s).
| Time | Temp. | Humidity | Pressure | Rain* | Wind** | Luminosity | Snow |
|---|---|---|---|---|---|---|---|
| 1777382877 | 5° C | 80% | 1017.3 hPa | 0 mm | - | 22 W/m² | - |
| 1777382573 | 4.44° C | 81% | 1017 hPa | 0 mm | - | 19 W/m² | - |
| 1777382269 | 5.56° C | 78% | 1017.1 hPa | 0 mm | - | 18 W/m² | - |
| 1777381965 | 4.44° C | 80% | 1016.9 hPa | 0 mm | - | 16 W/m² | - |
| 1777381660 | 5° C | 79% | 1017 hPa | 0 mm | - | 13 W/m² | - |
| 1777381356 | 3.89° C | 82% | 1016.7 hPa | 0 mm | - | 10 W/m² | - |
| 1777381052 | 5° C | 78% | 1016.8 hPa | 0 mm | - | 8 W/m² | - |
| 1777380749 | 5.56° C | 77% | 1016.6 hPa | 0 mm | - | 5 W/m² | - |
| 1777380446 | 5° C | 78% | 1016.7 hPa | 0 mm | - | 3 W/m² | - |
| 1777380142 | 4.44° C | 80% | 1016.8 hPa | 0 mm | - | 2 W/m² | - |
| 1777379837 | 5.56° C | 76% | 1016.7 hPa | 0 mm | - | 1 W/m² | - |
| 1777379528 | 5.56° C | 75% | 1016.7 hPa | 0 mm | - | 1 W/m² | - |
| 1777379223 | 5° C | 77% | 1016.6 hPa | 0 mm | - | 0 W/m² | - |
| 1777378918 | 5° C | 77% | 1016.5 hPa | 0 mm | - | 0 W/m² | - |
| 1777378614 | 5° C | 79% | 1016.4 hPa | 0 mm | - | 0 W/m² | - |
| 1777378310 | 4.44° C | 80% | 1016.2 hPa | 0 mm | - | 0 W/m² | - |
| 1777378010 | 5° C | 78% | 1016.1 hPa | 0 mm | - | 0 W/m² | - |
| 1777377703 | 5° C | 79% | 1016.1 hPa | 0 mm | - | 0 W/m² | - |
| 1777377399 | 5.56° C | 77% | 1016.2 hPa | 0 mm | - | 0 W/m² | - |
| 1777377096 | 5.56° C | 77% | 1016.3 hPa | 0 mm | - | 0 W/m² | - |
| 1777376792 | 5.56° C | 76% | 1016.1 hPa | 0 mm | - | 0 W/m² | - |
| 1777376490 | 6.11° C | 74% | 1015.9 hPa | 0 mm | - | 0 W/m² | - |
| 1777376185 | 5.56° C | 76% | 1016.2 hPa | 0 mm | - | 0 W/m² | - |
| 1777375881 | 6.67° C | 73% | 1016 hPa | 0 mm | - | 0 W/m² | - |
| 1777375575 | 7.78° C | 69% | 1016.1 hPa | 0 mm | - | 0 W/m² | - |
* Rain latest hour (hover to see other rain measurements)
** Current wind speed in m/s (hover to see current wind gust speed)